sensor_id;sensor_type;location;lat;lon;timestamp;temperature;humidity
51655;DHT22;37732;53.106;7.030;2022-07-29T00:02:18;13.70;99.90
51655;DHT22;37732;53.106;7.030;2022-07-29T00:04:43;13.70;99.90
51655;DHT22;37732;53.106;7.030;2022-07-29T00:07:09;13.60;99.90
51655;DHT22;37732;53.106;7.030;2022-07-29T00:09:35;13.70;99.90
51655;DHT22;37732;53.106;7.030;2022-07-29T00:12:01;13.60;99.90
51655;DHT22;37732;53.106;7.030;2022-07-29T00:14:27;13.60;99.90
51655;DHT22;37732;53.106;7.030;2022-07-29T00:16:53;13.60;99.90
51655;DHT22;37732;53.106;7.030;2022-07-29T00:19:19;13.60;99.90
51655;DHT22;37732;53.106;7.030;2022-07-29T00:21:45;13.60;99.90
51655;DHT22;37732;53.106;7.030;2022-07-29T00:24:10;13.60;99.90
51655;DHT22;37732;53.106;7.030;2022-07-29T00:26:36;13.60;99.90
51655;DHT22;37732;53.106;7.030;2022-07-29T00:29:03;13.70;99.90
51655;DHT22;37732;53.106;7.030;2022-07-29T00:31:29;13.60;99.90
51655;DHT22;37732;53.106;7.030;2022-07-29T00:33:55;13.70;99.90
51655;DHT22;37732;53.106;7.030;2022-07-29T00:36:21;13.70;99.90
51655;DHT22;37732;53.106;7.030;2022-07-29T00:38:48;13.70;99.90
51655;DHT22;37732;53.106;7.030;2022-07-29T00:41:15;13.70;99.90
51655;DHT22;37732;53.106;7.030;2022-07-29T00:43:41;13.70;99.90
51655;DHT22;37732;53.106;7.030;2022-07-29T00:46:07;13.80;99.90
51655;DHT22;37732;53.106;7.030;2022-07-29T00:48:32;13.80;99.90
51655;DHT22;37732;53.106;7.030;2022-07-29T00:51:00;13.80;99.90
51655;DHT22;37732;53.106;7.030;2022-07-29T00:53:26;14.00;99.90
51655;DHT22;37732;53.106;7.030;2022-07-29T00:55:56;13.80;99.90
51655;DHT22;37732;53.106;7.030;2022-07-29T00:58:23;13.70;99.90
51655;DHT22;37732;53.106;7.030;2022-07-29T01:00:49;13.80;99.90
51655;DHT22;37732;53.106;7.030;2022-07-29T01:03:14;13.70;99.90
51655;DHT22;37732;53.106;7.030;2022-07-29T01:05:41;13.90;99.90
51655;DHT22;37732;53.106;7.030;2022-07-29T01:08:08;13.80;99.90
51655;DHT22;37732;53.106;7.030;2022-07-29T01:10:38;13.80;99.90
51655;DHT22;37732;53.106;7.030;2022-07-29T01:13:05;14.00;99.90
51655;DHT22;37732;53.106;7.030;2022-07-29T01:15:33;13.80;99.90
51655;DHT22;37732;53.106;7.030;2022-07-29T01:18:24;13.80;99.90
51655;DHT22;37732;53.106;7.030;2022-07-29T01:29:45;13.80;99.90
51655;DHT22;37732;53.106;7.030;2022-07-29T01:32:17;13.80;99.90
51655;DHT22;37732;53.106;7.030;2022-07-29T01:35:04;13.80;99.90
51655;DHT22;37732;53.106;7.030;2022-07-29T01:37:57;13.90;99.90
51655;DHT22;37732;53.106;7.030;2022-07-29T01:40:36;13.90;99.90
51655;DHT22;37732;53.106;7.030;2022-07-29T01:43:18;13.80;99.90
51655;DHT22;37732;53.106;7.030;2022-07-29T01:48:21;13.90;99.90
51655;DHT22;37732;53.106;7.030;2022-07-29T01:53:42;13.90;99.90
51655;DHT22;37732;53.106;7.030;2022-07-29T01:56:10;13.90;99.90
51655;DHT22;37732;53.106;7.030;2022-07-29T01:58:39;13.90;99.90
51655;DHT22;37732;53.106;7.030;2022-07-29T02:01:06;13.90;99.90
51655;DHT22;37732;53.106;7.030;2022-07-29T02:03:35;13.90;99.90
51655;DHT22;37732;53.106;7.030;2022-07-29T02:06:02;13.90;99.90
51655;DHT22;37732;53.106;7.030;2022-07-29T02:08:30;13.80;99.90
51655;DHT22;37732;53.106;7.030;2022-07-29T02:10:59;13.90;99.90
51655;DHT22;37732;53.106;7.030;2022-07-29T02:13:27;13.90;99.90
51655;DHT22;37732;53.106;7.030;2022-07-29T02:15:55;13.90;99.90
51655;DHT22;37732;53.106;7.030;2022-07-29T02:18:24;13.90;99.90
51655;DHT22;37732;53.106;7.030;2022-07-29T02:20:53;14.20;99.90
51655;DHT22;37732;53.106;7.030;2022-07-29T02:23:22;13.90;99.90
51655;DHT22;37732;53.106;7.030;2022-07-29T02:25:52;13.90;99.90
51655;DHT22;37732;53.106;7.030;2022-07-29T02:28:19;13.90;99.90
51655;DHT22;37732;53.106;7.030;2022-07-29T02:30:46;13.90;99.90
51655;DHT22;37732;53.106;7.030;2022-07-29T02:33:14;13.90;99.90
51655;DHT22;37732;53.106;7.030;2022-07-29T02:35:41;13.90;99.90
51655;DHT22;37732;53.106;7.030;2022-07-29T02:38:13;13.90;99.90
51655;DHT22;37732;53.106;7.030;2022-07-29T02:41:10;13.90;99.90
51655;DHT22;37732;53.106;7.030;2022-07-29T02:43:37;13.90;99.90
51655;DHT22;37732;53.106;7.030;2022-07-29T02:46:08;13.90;99.90
51655;DHT22;37732;53.106;7.030;2022-07-29T02:48:38;13.90;99.90
51655;DHT22;37732;53.106;7.030;2022-07-29T02:51:17;13.80;99.90
51655;DHT22;37732;53.106;7.030;2022-07-29T02:53:49;13.90;99.90
51655;DHT22;37732;53.106;7.030;2022-07-29T02:56:16;13.80;99.90
51655;DHT22;37732;53.106;7.030;2022-07-29T02:58:56;13.90;99.90
51655;DHT22;37732;53.106;7.030;2022-07-29T03:01:24;13.90;99.90
51655;DHT22;37732;53.106;7.030;2022-07-29T03:03:52;13.80;99.90
51655;DHT22;37732;53.106;7.030;2022-07-29T03:06:20;13.80;99.90
51655;DHT22;37732;53.106;7.030;2022-07-29T03:08:47;13.90;99.90
51655;DHT22;37732;53.106;7.030;2022-07-29T03:11:13;13.90;99.90
51655;DHT22;37732;53.106;7.030;2022-07-29T03:13:41;13.90;99.90
51655;DHT22;37732;53.106;7.030;2022-07-29T03:16:07;13.90;99.90
51655;DHT22;37732;53.106;7.030;2022-07-29T03:18:34;13.80;99.90
51655;DHT22;37732;53.106;7.030;2022-07-29T03:20:59;13.70;99.90
51655;DHT22;37732;53.106;7.030;2022-07-29T03:23:25;13.90;99.90
51655;DHT22;37732;53.106;7.030;2022-07-29T03:25:53;13.90;99.90
51655;DHT22;37732;53.106;7.030;2022-07-29T03:28:19;13.80;99.90
51655;DHT22;37732;53.106;7.030;2022-07-29T03:30:45;13.80;99.90
51655;DHT22;37732;53.106;7.030;2022-07-29T03:33:11;13.80;99.90
51655;DHT22;37732;53.106;7.030;2022-07-29T03:35:37;13.80;99.90
51655;DHT22;37732;53.106;7.030;2022-07-29T03:38:03;13.80;99.90
51655;DHT22;37732;53.106;7.030;2022-07-29T03:43:17;13.80;99.90
51655;DHT22;37732;53.106;7.030;2022-07-29T03:45:47;13.80;99.90
51655;DHT22;37732;53.106;7.030;2022-07-29T03:48:15;13.80;99.90
51655;DHT22;37732;53.106;7.030;2022-07-29T03:50:41;13.80;99.90
51655;DHT22;37732;53.106;7.030;2022-07-29T03:53:08;13.80;99.90
51655;DHT22;37732;53.106;7.030;2022-07-29T03:55:40;13.80;99.90
51655;DHT22;37732;53.106;7.030;2022-07-29T03:58:06;13.80;99.90
51655;DHT22;37732;53.106;7.030;2022-07-29T04:00:34;13.80;99.90
51655;DHT22;37732;53.106;7.030;2022-07-29T04:03:01;13.80;99.90
51655;DHT22;37732;53.106;7.030;2022-07-29T04:05:27;13.80;99.90
51655;DHT22;37732;53.106;7.030;2022-07-29T04:07:52;13.80;99.90
51655;DHT22;37732;53.106;7.030;2022-07-29T04:10:18;13.80;99.90
51655;DHT22;37732;53.106;7.030;2022-07-29T04:12:44;13.80;99.90
51655;DHT22;37732;53.106;7.030;2022-07-29T04:15:10;13.90;99.90
51655;DHT22;37732;53.106;7.030;2022-07-29T04:17:36;13.80;99.90
51655;DHT22;37732;53.106;7.030;2022-07-29T04:20:02;13.90;99.90
51655;DHT22;37732;53.106;7.030;2022-07-29T04:22:28;13.90;99.90
51655;DHT22;37732;53.106;7.030;2022-07-29T04:24:54;13.90;99.90
51655;DHT22;37732;53.106;7.030;2022-07-29T04:27:19;13.90;99.90
51655;DHT22;37732;53.106;7.030;2022-07-29T04:29:45;13.90;99.90
51655;DHT22;37732;53.106;7.030;2022-07-29T04:32:10;13.90;99.90
51655;DHT22;37732;53.106;7.030;2022-07-29T04:34:36;14.10;99.90
51655;DHT22;37732;53.106;7.030;2022-07-29T04:37:02;13.90;99.90
51655;DHT22;37732;53.106;7.030;2022-07-29T04:39:28;13.90;99.90
51655;DHT22;37732;53.106;7.030;2022-07-29T04:41:53;14.00;99.90
51655;DHT22;37732;53.106;7.030;2022-07-29T04:44:19;14.00;99.90
51655;DHT22;37732;53.106;7.030;2022-07-29T04:46:45;14.00;99.90
51655;DHT22;37732;53.106;7.030;2022-07-29T04:49:10;14.00;99.90
51655;DHT22;37732;53.106;7.030;2022-07-29T04:51:36;14.20;99.90
51655;DHT22;37732;53.106;7.030;2022-07-29T04:54:01;14.00;99.90
51655;DHT22;37732;53.106;7.030;2022-07-29T04:56:27;14.00;99.90
51655;DHT22;37732;53.106;7.030;2022-07-29T04:58:53;14.10;99.90
51655;DHT22;37732;53.106;7.030;2022-07-29T05:01:19;14.30;99.90
51655;DHT22;37732;53.106;7.030;2022-07-29T05:03:45;14.10;99.90
51655;DHT22;37732;53.106;7.030;2022-07-29T05:06:11;14.10;99.90
51655;DHT22;37732;53.106;7.030;2022-07-29T05:08:36;14.10;99.90
51655;DHT22;37732;53.106;7.030;2022-07-29T05:11:02;14.20;99.90
51655;DHT22;37732;53.106;7.030;2022-07-29T05:13:27;14.20;99.90
51655;DHT22;37732;53.106;7.030;2022-07-29T05:15:53;14.30;99.90
51655;DHT22;37732;53.106;7.030;2022-07-29T05:18:19;14.30;99.90
51655;DHT22;37732;53.106;7.030;2022-07-29T05:20:45;14.30;99.90
51655;DHT22;37732;53.106;7.030;2022-07-29T05:23:10;14.40;99.90
51655;DHT22;37732;53.106;7.030;2022-07-29T05:25:38;14.40;99.90
51655;DHT22;37732;53.106;7.030;2022-07-29T05:28:04;14.50;99.90
51655;DHT22;37732;53.106;7.030;2022-07-29T05:30:29;14.50;99.90
51655;DHT22;37732;53.106;7.030;2022-07-29T05:32:55;14.60;99.90
51655;DHT22;37732;53.106;7.030;2022-07-29T05:35:21;14.60;99.90
51655;DHT22;37732;53.106;7.030;2022-07-29T05:37:46;14.70;99.90
51655;DHT22;37732;53.106;7.030;2022-07-29T05:40:12;14.80;99.90
51655;DHT22;37732;53.106;7.030;2022-07-29T05:42:38;14.90;99.90
51655;DHT22;37732;53.106;7.030;2022-07-29T05:45:04;15.00;99.90
51655;DHT22;37732;53.106;7.030;2022-07-29T05:47:30;15.00;99.90
51655;DHT22;37732;53.106;7.030;2022-07-29T05:49:56;15.10;99.90
51655;DHT22;37732;53.106;7.030;2022-07-29T05:52:22;15.20;99.90
51655;DHT22;37732;53.106;7.030;2022-07-29T05:54:48;15.30;99.90
51655;DHT22;37732;53.106;7.030;2022-07-29T05:57:18;15.30;99.90
51655;DHT22;37732;53.106;7.030;2022-07-29T05:59:44;15.30;99.90
51655;DHT22;37732;53.106;7.030;2022-07-29T06:02:10;15.30;99.90
51655;DHT22;37732;53.106;7.030;2022-07-29T06:04:36;15.40;99.90
51655;DHT22;37732;53.106;7.030;2022-07-29T06:07:02;15.40;99.90
51655;DHT22;37732;53.106;7.030;2022-07-29T06:09:28;15.50;99.90
51655;DHT22;37732;53.106;7.030;2022-07-29T06:11:54;15.60;99.90
51655;DHT22;37732;53.106;7.030;2022-07-29T06:14:19;15.60;99.90
51655;DHT22;37732;53.106;7.030;2022-07-29T06:16:45;15.70;99.90
51655;DHT22;37732;53.106;7.030;2022-07-29T06:19:11;16.00;99.90
51655;DHT22;37732;53.106;7.030;2022-07-29T06:21:44;15.80;99.90
51655;DHT22;37732;53.106;7.030;2022-07-29T06:24:13;15.80;99.90
51655;DHT22;37732;53.106;7.030;2022-07-29T06:26:40;15.90;99.90
51655;DHT22;37732;53.106;7.030;2022-07-29T06:29:07;15.90;99.90
51655;DHT22;37732;53.106;7.030;2022-07-29T06:31:32;16.00;99.90
51655;DHT22;37732;53.106;7.030;2022-07-29T06:33:58;16.00;99.90
51655;DHT22;37732;53.106;7.030;2022-07-29T06:36:24;16.10;99.90
51655;DHT22;37732;53.106;7.030;2022-07-29T06:38:49;16.20;99.90
51655;DHT22;37732;53.106;7.030;2022-07-29T06:41:15;16.20;99.90
51655;DHT22;37732;53.106;7.030;2022-07-29T06:43:43;16.20;99.90
51655;DHT22;37732;53.106;7.030;2022-07-29T06:46:14;16.30;99.90
51655;DHT22;37732;53.106;7.030;2022-07-29T06:48:41;16.20;99.90
51655;DHT22;37732;53.106;7.030;2022-07-29T06:51:08;16.30;99.90
51655;DHT22;37732;53.106;7.030;2022-07-29T06:53:34;16.30;99.90
51655;DHT22;37732;53.106;7.030;2022-07-29T06:56:01;16.30;99.90
51655;DHT22;37732;53.106;7.030;2022-07-29T06:58:27;16.30;99.90
51655;DHT22;37732;53.106;7.030;2022-07-29T07:00:53;16.30;99.90
51655;DHT22;37732;53.106;7.030;2022-07-29T07:03:20;16.30;99.90
51655;DHT22;37732;53.106;7.030;2022-07-29T07:05:45;16.30;99.90
51655;DHT22;37732;53.106;7.030;2022-07-29T07:08:12;16.40;99.90
51655;DHT22;37732;53.106;7.030;2022-07-29T07:10:38;16.40;99.90
51655;DHT22;37732;53.106;7.030;2022-07-29T07:13:05;16.40;99.90
51655;DHT22;37732;53.106;7.030;2022-07-29T07:15:31;16.40;99.90
51655;DHT22;37732;53.106;7.030;2022-07-29T07:17:57;16.50;99.90
51655;DHT22;37732;53.106;7.030;2022-07-29T07:20:23;16.60;99.90
51655;DHT22;37732;53.106;7.030;2022-07-29T07:22:49;16.60;99.90
51655;DHT22;37732;53.106;7.030;2022-07-29T07:25:15;16.70;99.90
51655;DHT22;37732;53.106;7.030;2022-07-29T07:27:43;16.70;99.90
51655;DHT22;37732;53.106;7.030;2022-07-29T07:30:09;16.80;99.90
51655;DHT22;37732;53.106;7.030;2022-07-29T07:32:35;16.80;99.90
51655;DHT22;37732;53.106;7.030;2022-07-29T07:35:02;16.90;99.90
51655;DHT22;37732;53.106;7.030;2022-07-29T07:37:28;16.90;99.90
51655;DHT22;37732;53.106;7.030;2022-07-29T07:39:53;17.00;99.90
51655;DHT22;37732;53.106;7.030;2022-07-29T07:42:19;17.00;99.90
51655;DHT22;37732;53.106;7.030;2022-07-29T07:44:45;17.10;99.90
51655;DHT22;37732;53.106;7.030;2022-07-29T07:47:12;17.20;99.90
51655;DHT22;37732;53.106;7.030;2022-07-29T07:49:38;17.30;99.90
51655;DHT22;37732;53.106;7.030;2022-07-29T07:52:04;17.30;99.90
51655;DHT22;37732;53.106;7.030;2022-07-29T07:54:30;17.40;99.90
51655;DHT22;37732;53.106;7.030;2022-07-29T07:56:56;17.40;99.90
51655;DHT22;37732;53.106;7.030;2022-07-29T07:59:21;17.50;99.90
51655;DHT22;37732;53.106;7.030;2022-07-29T08:01:47;17.60;99.90
51655;DHT22;37732;53.106;7.030;2022-07-29T08:04:13;17.60;99.90
51655;DHT22;37732;53.106;7.030;2022-07-29T08:06:38;17.60;99.90
51655;DHT22;37732;53.106;7.030;2022-07-29T08:09:04;17.70;99.90
51655;DHT22;37732;53.106;7.030;2022-07-29T08:11:31;17.80;99.90
51655;DHT22;37732;53.106;7.030;2022-07-29T08:13:57;17.80;99.90
51655;DHT22;37732;53.106;7.030;2022-07-29T08:16:23;17.80;99.90
51655;DHT22;37732;53.106;7.030;2022-07-29T08:18:51;17.90;99.90
51655;DHT22;37732;53.106;7.030;2022-07-29T08:21:17;18.00;99.90
51655;DHT22;37732;53.106;7.030;2022-07-29T08:23:45;18.10;99.90
51655;DHT22;37732;53.106;7.030;2022-07-29T08:26:15;18.20;99.90
51655;DHT22;37732;53.106;7.030;2022-07-29T08:28:42;18.20;99.90
51655;DHT22;37732;53.106;7.030;2022-07-29T08:31:12;18.30;99.90
51655;DHT22;37732;53.106;7.030;2022-07-29T08:33:38;18.40;99.90
51655;DHT22;37732;53.106;7.030;2022-07-29T08:36:05;18.50;99.90
51655;DHT22;37732;53.106;7.030;2022-07-29T08:38:31;18.50;99.90
51655;DHT22;37732;53.106;7.030;2022-07-29T08:40:58;18.60;99.90
51655;DHT22;37732;53.106;7.030;2022-07-29T08:43:25;18.80;99.90
51655;DHT22;37732;53.106;7.030;2022-07-29T08:45:51;18.80;99.90
51655;DHT22;37732;53.106;7.030;2022-07-29T08:48:21;19.00;99.90
51655;DHT22;37732;53.106;7.030;2022-07-29T08:50:50;19.00;99.90
51655;DHT22;37732;53.106;7.030;2022-07-29T08:53:18;19.10;99.90
51655;DHT22;37732;53.106;7.030;2022-07-29T08:55:45;19.20;99.90
51655;DHT22;37732;53.106;7.030;2022-07-29T08:58:12;19.30;99.90
51655;DHT22;37732;53.106;7.030;2022-07-29T09:00:42;19.40;99.90
51655;DHT22;37732;53.106;7.030;2022-07-29T09:03:09;19.50;99.90
51655;DHT22;37732;53.106;7.030;2022-07-29T09:05:41;19.50;99.90
51655;DHT22;37732;53.106;7.030;2022-07-29T09:08:06;19.50;99.90
51655;DHT22;37732;53.106;7.030;2022-07-29T09:10:35;19.50;99.90
51655;DHT22;37732;53.106;7.030;2022-07-29T09:13:00;19.60;99.90
51655;DHT22;37732;53.106;7.030;2022-07-29T09:15:26;19.70;99.90
51655;DHT22;37732;53.106;7.030;2022-07-29T09:17:52;19.60;99.90
51655;DHT22;37732;53.106;7.030;2022-07-29T09:20:20;19.60;99.90
51655;DHT22;37732;53.106;7.030;2022-07-29T09:22:47;19.70;99.90
51655;DHT22;37732;53.106;7.030;2022-07-29T09:25:32;19.70;99.90
51655;DHT22;37732;53.106;7.030;2022-07-29T09:28:09;19.80;99.90
51655;DHT22;37732;53.106;7.030;2022-07-29T09:30:38;19.80;99.90
51655;DHT22;37732;53.106;7.030;2022-07-29T09:33:14;19.70;99.90
51655;DHT22;37732;53.106;7.030;2022-07-29T09:35:40;19.80;99.90
51655;DHT22;37732;53.106;7.030;2022-07-29T09:38:13;19.80;99.90
51655;DHT22;37732;53.106;7.030;2022-07-29T09:40:39;19.90;99.90
51655;DHT22;37732;53.106;7.030;2022-07-29T09:43:12;20.00;99.90
51655;DHT22;37732;53.106;7.030;2022-07-29T09:45:38;20.10;99.90
51655;DHT22;37732;53.106;7.030;2022-07-29T09:48:21;20.10;99.90
51655;DHT22;37732;53.106;7.030;2022-07-29T09:50:47;20.30;99.90
51655;DHT22;37732;53.106;7.030;2022-07-29T09:53:35;20.40;99.90
51655;DHT22;37732;53.106;7.030;2022-07-29T09:56:01;20.60;99.90
51655;DHT22;37732;53.106;7.030;2022-07-29T09:58:27;20.80;99.90
51655;DHT22;37732;53.106;7.030;2022-07-29T10:00:54;20.80;99.90
51655;DHT22;37732;53.106;7.030;2022-07-29T10:03:21;21.00;99.90
51655;DHT22;37732;53.106;7.030;2022-07-29T10:06:10;21.10;99.90
51655;DHT22;37732;53.106;7.030;2022-07-29T10:08:36;21.20;99.90
51655;DHT22;37732;53.106;7.030;2022-07-29T10:13:36;21.40;99.90
51655;DHT22;37732;53.106;7.030;2022-07-29T10:16:02;21.50;99.90
51655;DHT22;37732;53.106;7.030;2022-07-29T10:18:28;21.70;99.90
51655;DHT22;37732;53.106;7.030;2022-07-29T10:20:54;21.80;99.90
51655;DHT22;37732;53.106;7.030;2022-07-29T10:23:21;21.90;99.90
51655;DHT22;37732;53.106;7.030;2022-07-29T10:25:46;22.00;99.90
51655;DHT22;37732;53.106;7.030;2022-07-29T10:28:12;22.10;99.90
51655;DHT22;37732;53.106;7.030;2022-07-29T10:30:39;22.10;99.90
51655;DHT22;37732;53.106;7.030;2022-07-29T10:33:38;22.20;99.90
51655;DHT22;37732;53.106;7.030;2022-07-29T10:38:53;22.30;99.90
51655;DHT22;37732;53.106;7.030;2022-07-29T10:46:54;22.50;99.90
51655;DHT22;37732;53.106;7.030;2022-07-29T10:49:22;22.50;99.90
51655;DHT22;37732;53.106;7.030;2022-07-29T10:54:16;22.70;99.90
51655;DHT22;37732;53.106;7.030;2022-07-29T10:56:42;22.80;99.90
51655;DHT22;37732;53.106;7.030;2022-07-29T11:01:48;23.20;99.60
51655;DHT22;37732;53.106;7.030;2022-07-29T11:07:11;23.60;99.10
51655;DHT22;37732;53.106;7.030;2022-07-29T11:09:38;23.60;98.90
51655;DHT22;37732;53.106;7.030;2022-07-29T11:15:01;23.70;98.60
51655;DHT22;37732;53.106;7.030;2022-07-29T11:17:28;23.60;98.80
51655;DHT22;37732;53.106;7.030;2022-07-29T11:20:36;23.70;98.80
51655;DHT22;37732;53.106;7.030;2022-07-29T11:25:43;23.70;98.90
51655;DHT22;37732;53.106;7.030;2022-07-29T11:28:13;23.70;98.70
51655;DHT22;37732;53.106;7.030;2022-07-29T11:30:53;23.70;98.70
51655;DHT22;37732;53.106;7.030;2022-07-29T11:33:46;23.70;98.30
51655;DHT22;37732;53.106;7.030;2022-07-29T11:36:15;23.60;98.50
51655;DHT22;37732;53.106;7.030;2022-07-29T11:38:41;23.60;99.00
51655;DHT22;37732;53.106;7.030;2022-07-29T11:41:24;23.60;98.70
51655;DHT22;37732;53.106;7.030;2022-07-29T11:43:51;23.60;98.20
51655;DHT22;37732;53.106;7.030;2022-07-29T11:49:09;23.60;98.60
51655;DHT22;37732;53.106;7.030;2022-07-29T11:51:36;23.60;98.40
51655;DHT22;37732;53.106;7.030;2022-07-29T11:54:04;23.70;98.50
51655;DHT22;37732;53.106;7.030;2022-07-29T11:56:31;23.80;98.30
51655;DHT22;37732;53.106;7.030;2022-07-29T11:59:05;23.80;98.60
51655;DHT22;37732;53.106;7.030;2022-07-29T12:01:31;23.80;99.30
51655;DHT22;37732;53.106;7.030;2022-07-29T12:04:07;23.80;98.80
51655;DHT22;37732;53.106;7.030;2022-07-29T12:06:36;23.80;97.90
51655;DHT22;37732;53.106;7.030;2022-07-29T12:09:08;23.80;98.10
51655;DHT22;37732;53.106;7.030;2022-07-29T12:11:34;23.80;98.00
51655;DHT22;37732;53.106;7.030;2022-07-29T12:14:00;23.80;98.00
51655;DHT22;37732;53.106;7.030;2022-07-29T12:16:35;23.80;97.40
51655;DHT22;37732;53.106;7.030;2022-07-29T12:19:02;23.90;97.50
51655;DHT22;37732;53.106;7.030;2022-07-29T12:21:29;24.00;98.40
51655;DHT22;37732;53.106;7.030;2022-07-29T12:23:56;24.00;98.60
51655;DHT22;37732;53.106;7.030;2022-07-29T12:26:22;24.10;98.20
51655;DHT22;37732;53.106;7.030;2022-07-29T12:28:48;24.10;98.10
51655;DHT22;37732;53.106;7.030;2022-07-29T12:31:15;24.20;97.70
51655;DHT22;37732;53.106;7.030;2022-07-29T12:33:41;24.20;97.70
51655;DHT22;37732;53.106;7.030;2022-07-29T12:36:07;24.20;97.60
51655;DHT22;37732;53.106;7.030;2022-07-29T12:38:34;24.10;97.40
51655;DHT22;37732;53.106;7.030;2022-07-29T12:41:00;24.10;98.20
51655;DHT22;37732;53.106;7.030;2022-07-29T12:43:26;24.10;98.70
51655;DHT22;37732;53.106;7.030;2022-07-29T12:45:54;24.10;97.90
51655;DHT22;37732;53.106;7.030;2022-07-29T12:48:37;24.00;97.80
51655;DHT22;37732;53.106;7.030;2022-07-29T12:51:05;24.00;97.80
51655;DHT22;37732;53.106;7.030;2022-07-29T12:53:34;23.90;97.60
51655;DHT22;37732;53.106;7.030;2022-07-29T12:56:00;23.90;97.50
51655;DHT22;37732;53.106;7.030;2022-07-29T12:58:31;23.80;98.20
51655;DHT22;37732;53.106;7.030;2022-07-29T13:01:14;23.80;98.70
51655;DHT22;37732;53.106;7.030;2022-07-29T13:06:41;23.80;99.60
51655;DHT22;37732;53.106;7.030;2022-07-29T13:09:12;23.80;99.90
51655;DHT22;37732;53.106;7.030;2022-07-29T13:11:46;23.80;99.90
51655;DHT22;37732;53.106;7.030;2022-07-29T13:14:30;23.70;99.90
51655;DHT22;37732;53.106;7.030;2022-07-29T13:17:15;23.70;99.90
51655;DHT22;37732;53.106;7.030;2022-07-29T13:19:51;23.70;99.90
51655;DHT22;37732;53.106;7.030;2022-07-29T13:22:21;23.60;99.90
51655;DHT22;37732;53.106;7.030;2022-07-29T13:24:47;23.50;99.90
51655;DHT22;37732;53.106;7.030;2022-07-29T13:27:15;23.40;99.90
51655;DHT22;37732;53.106;7.030;2022-07-29T13:29:41;23.40;99.90
51655;DHT22;37732;53.106;7.030;2022-07-29T13:32:06;23.40;99.90
51655;DHT22;37732;53.106;7.030;2022-07-29T13:34:32;23.20;99.90
51655;DHT22;37732;53.106;7.030;2022-07-29T13:36:58;23.20;99.90
51655;DHT22;37732;53.106;7.030;2022-07-29T13:39:24;23.20;99.90
51655;DHT22;37732;53.106;7.030;2022-07-29T13:41:50;23.20;99.90
51655;DHT22;37732;53.106;7.030;2022-07-29T13:44:16;23.10;99.90
51655;DHT22;37732;53.106;7.030;2022-07-29T13:46:41;23.00;99.90
51655;DHT22;37732;53.106;7.030;2022-07-29T13:49:07;23.00;99.90
51655;DHT22;37732;53.106;7.030;2022-07-29T13:51:33;23.00;99.90
51655;DHT22;37732;53.106;7.030;2022-07-29T13:53:58;23.00;99.90
51655;DHT22;37732;53.106;7.030;2022-07-29T13:56:24;23.00;99.90
51655;DHT22;37732;53.106;7.030;2022-07-29T13:58:49;23.00;99.90
51655;DHT22;37732;53.106;7.030;2022-07-29T14:01:15;23.00;99.90
51655;DHT22;37732;53.106;7.030;2022-07-29T14:03:41;23.00;99.90
51655;DHT22;37732;53.106;7.030;2022-07-29T14:06:08;23.00;99.90
51655;DHT22;37732;53.106;7.030;2022-07-29T14:08:34;23.00;99.90
51655;DHT22;37732;53.106;7.030;2022-07-29T14:10:59;23.10;99.90
51655;DHT22;37732;53.106;7.030;2022-07-29T14:13:25;23.20;99.90
51655;DHT22;37732;53.106;7.030;2022-07-29T14:15:51;23.20;99.80
51655;DHT22;37732;53.106;7.030;2022-07-29T14:18:17;23.20;99.30
51655;DHT22;37732;53.106;7.030;2022-07-29T14:20:43;23.70;99.50
51655;DHT22;37732;53.106;7.030;2022-07-29T14:23:08;23.60;98.80
51655;DHT22;37732;53.106;7.030;2022-07-29T14:25:34;23.80;98.30
51655;DHT22;37732;53.106;7.030;2022-07-29T14:27:59;23.90;97.50
51655;DHT22;37732;53.106;7.030;2022-07-29T14:30:25;24.00;97.40
51655;DHT22;37732;53.106;7.030;2022-07-29T14:32:51;24.00;96.70
51655;DHT22;37732;53.106;7.030;2022-07-29T14:35:16;24.10;96.70
51655;DHT22;37732;53.106;7.030;2022-07-29T14:37:42;24.10;96.30
51655;DHT22;37732;53.106;7.030;2022-07-29T14:40:09;24.10;95.90
51655;DHT22;37732;53.106;7.030;2022-07-29T14:42:36;24.20;96.20
51655;DHT22;37732;53.106;7.030;2022-07-29T14:45:04;24.40;96.60
51655;DHT22;37732;53.106;7.030;2022-07-29T14:47:30;24.50;96.00
51655;DHT22;37732;53.106;7.030;2022-07-29T14:49:55;24.60;95.00
51655;DHT22;37732;53.106;7.030;2022-07-29T14:52:21;24.70;94.70
51655;DHT22;37732;53.106;7.030;2022-07-29T14:54:46;24.90;94.30
51655;DHT22;37732;53.106;7.030;2022-07-29T14:57:12;25.10;93.60
51655;DHT22;37732;53.106;7.030;2022-07-29T14:59:38;25.30;93.50
51655;DHT22;37732;53.106;7.030;2022-07-29T15:02:03;25.50;93.60
51655;DHT22;37732;53.106;7.030;2022-07-29T15:04:29;25.70;91.90
51655;DHT22;37732;53.106;7.030;2022-07-29T15:09:21;26.10;89.70
51655;DHT22;37732;53.106;7.030;2022-07-29T15:11:47;26.20;88.40
51655;DHT22;37732;53.106;7.030;2022-07-29T15:14:12;26.10;89.50
51655;DHT22;37732;53.106;7.030;2022-07-29T15:16:39;26.00;87.50
51655;DHT22;37732;53.106;7.030;2022-07-29T15:19:07;25.90;85.60
51655;DHT22;37732;53.106;7.030;2022-07-29T15:21:33;25.80;86.20
51655;DHT22;37732;53.106;7.030;2022-07-29T15:23:59;25.60;87.60
51655;DHT22;37732;53.106;7.030;2022-07-29T15:26:24;25.60;89.90
51655;DHT22;37732;53.106;7.030;2022-07-29T15:28:50;25.60;90.00
51655;DHT22;37732;53.106;7.030;2022-07-29T15:31:16;25.60;89.90
51655;DHT22;37732;53.106;7.030;2022-07-29T15:33:44;25.50;89.70
51655;DHT22;37732;53.106;7.030;2022-07-29T15:36:09;25.50;90.00
51655;DHT22;37732;53.106;7.030;2022-07-29T15:38:37;25.40;89.20
51655;DHT22;37732;53.106;7.030;2022-07-29T15:41:04;25.40;90.10
51655;DHT22;37732;53.106;7.030;2022-07-29T15:43:30;25.40;89.60
51655;DHT22;37732;53.106;7.030;2022-07-29T15:45:56;25.40;89.30
51655;DHT22;37732;53.106;7.030;2022-07-29T15:48:39;25.40;89.30
51655;DHT22;37732;53.106;7.030;2022-07-29T15:51:05;25.30;90.00
51655;DHT22;37732;53.106;7.030;2022-07-29T15:53:31;25.30;90.60
51655;DHT22;37732;53.106;7.030;2022-07-29T15:55:56;25.30;90.40
51655;DHT22;37732;53.106;7.030;2022-07-29T15:58:22;25.30;90.20
51655;DHT22;37732;53.106;7.030;2022-07-29T16:00:48;25.20;90.50
51655;DHT22;37732;53.106;7.030;2022-07-29T16:03:14;25.10;90.50
51655;DHT22;37732;53.106;7.030;2022-07-29T16:05:41;25.20;91.20
51655;DHT22;37732;53.106;7.030;2022-07-29T16:08:06;25.20;91.40
51655;DHT22;37732;53.106;7.030;2022-07-29T16:10:32;25.20;91.60
51655;DHT22;37732;53.106;7.030;2022-07-29T16:12:58;25.10;91.60
51655;DHT22;37732;53.106;7.030;2022-07-29T16:15:24;25.00;91.80
51655;DHT22;37732;53.106;7.030;2022-07-29T16:17:49;25.10;92.20
51655;DHT22;37732;53.106;7.030;2022-07-29T16:20:15;25.10;92.10
51655;DHT22;37732;53.106;7.030;2022-07-29T16:22:41;25.10;92.30
51655;DHT22;37732;53.106;7.030;2022-07-29T16:25:08;25.10;92.20